createdAt,value
2019-05-29T00:01:35.949Z,100000.02
2019-05-29T00:04:03.799Z,100009.81
2019-05-29T00:06:33.983Z,100018.87
2019-05-29T00:09:01.785Z,100018.87
2019-05-29T00:11:29.521Z,100019.98
2019-05-29T00:13:57.134Z,100021.27
2019-05-29T00:16:25.231Z,100025.04
2019-05-29T00:18:58.254Z,100027.55
2019-05-29T00:21:26.237Z,100028.84
2019-05-29T00:23:53.997Z,100032.42
2019-05-29T00:26:21.795Z,100042.08
2019-05-29T00:28:49.640Z,100033.36
2019-05-29T00:31:18.182Z,100039.22
2019-05-29T00:33:49.968Z,100054.66
2019-05-29T00:36:23.360Z,100054.66
2019-05-29T00:38:51.148Z,100051.38
2019-05-29T00:41:19.351Z,100060.19
2019-05-29T00:43:47.098Z,100051.69
2019-05-29T00:46:17.603Z,100049.74
2019-05-29T00:48:45.466Z,100051.28
2019-05-29T00:51:13.227Z,100052.45
2019-05-29T00:53:41.025Z,100054.48
2019-05-29T00:56:10.924Z,100054.48
2019-05-29T00:58:41.431Z,100059.53
2019-05-29T01:01:09.249Z,100062.42
2019-05-29T01:03:37.183Z,100069.13
2019-05-29T01:06:05.241Z,100066.67
2019-05-29T01:08:33.127Z,100066.67
2019-05-29T01:11:00.770Z,100071.86
2019-05-29T01:13:28.506Z,100077.23
2019-05-29T01:15:56.299Z,100077.23
2019-05-29T01:18:24.073Z,100083.61
2019-05-29T01:20:51.850Z,100081.64
2019-05-29T01:23:20.339Z,100086.45
2019-05-29T01:25:48.178Z,100099.56
2019-05-29T01:28:16.876Z,100099.56
2019-05-29T01:30:45.239Z,100099.80
2019-05-29T01:33:16.929Z,100095.86
2019-05-29T01:35:42.803Z,100101.37
2019-05-29T01:38:10.581Z,100102.55
2019-05-29T01:40:38.342Z,100102.55
2019-05-29T01:43:06.543Z,100109.98
2019-05-29T01:45:34.287Z,100114.55
2019-05-29T01:48:02.394Z,100114.23
2019-05-29T01:50:30.006Z,100114.23
2019-05-29T01:52:57.670Z,100116.06
2019-05-29T01:55:25.657Z,100116.06
2019-05-29T01:57:53.526Z,100118.94
2019-05-29T02:00:21.972Z,100128.42
2019-05-29T02:02:51.091Z,100134.63
2019-05-29T02:05:19.979Z,100134.63
2019-05-29T02:07:48.058Z,100134.20
2019-05-29T02:10:16.019Z,100134.20
2019-05-29T02:12:43.780Z,100132.69
2019-05-29T02:15:23.921Z,100142.84
2019-05-29T02:17:41.018Z,100148.33
2019-05-29T02:20:08.631Z,100148.33
2019-05-29T02:22:36.351Z,100146.11
2019-05-29T02:25:04.150Z,100147.25
2019-05-29T02:27:31.791Z,100152.39
2019-05-29T02:29:59.657Z,100149.86
2019-05-29T02:32:27.856Z,100157.62
2019-05-29T02:34:56.013Z,100157.62
2019-05-29T02:37:24.436Z,100164.40
2019-05-29T02:39:52.158Z,100164.20
2019-05-29T02:42:20.992Z,100164.20
2019-05-29T02:44:49.130Z,100164.80
2019-05-29T02:47:17.181Z,100172.59
2019-05-29T02:49:44.878Z,100172.39
2019-05-29T02:52:14.567Z,100172.39
2019-05-29T02:54:42.241Z,100175.72
2019-05-29T02:57:09.936Z,100179.03
2019-05-29T02:59:37.591Z,100173.08
2019-05-29T03:02:05.273Z,100185.09
2019-05-29T03:04:34.201Z,100185.09
2019-05-29T03:07:01.864Z,100187.20
2019-05-29T03:09:30.765Z,100198.54
2019-05-29T03:12:00.281Z,100198.54
2019-05-29T03:14:29.483Z,100203.30
2019-05-29T03:16:57.368Z,100206.69
2019-05-29T03:19:25.975Z,100209.61
2019-05-29T03:21:53.749Z,100211.22
2019-05-29T03:24:21.408Z,100211.22
2019-05-29T03:26:48.999Z,100221.14
2019-05-29T03:29:17.130Z,100219.15
2019-05-29T03:31:47.539Z,100221.59
2019-05-29T03:34:14.256Z,100221.59
2019-05-29T03:36:47.750Z,100231.70
2019-05-29T03:39:11.296Z,100230.37
2019-05-29T03:41:39.229Z,100233.59
2019-05-29T03:44:10.354Z,100233.59
2019-05-29T03:46:43.029Z,100240.30
2019-05-29T03:49:05.831Z,100240.30
2019-05-29T03:51:35.181Z,100239.64
2019-05-29T03:54:02.799Z,100245.78
2019-05-29T03:56:31.230Z,100245.78
2019-05-29T03:59:00.014Z,100244.39
2019-05-29T04:01:29.153Z,100244.39
2019-05-29T04:03:57.678Z,100252.41
2019-05-29T04:06:26.875Z,100254.31
2019-05-29T04:08:54.864Z,100254.31
2019-05-29T04:11:22.678Z,100260.63
2019-05-29T04:13:50.431Z,100260.63
2019-05-29T04:16:18.472Z,100264.14
2019-05-29T04:18:46.091Z,100264.89
2019-05-29T04:21:13.723Z,100265.11
2019-05-29T04:23:41.494Z,100268.15
2019-05-29T04:26:09.262Z,100270.97
2019-05-29T04:28:40.427Z,100273.63
2019-05-29T04:31:08.206Z,100273.64
2019-05-29T04:33:36.775Z,100278.00
2019-05-29T04:36:04.989Z,100285.01
2019-05-29T04:38:33.803Z,100285.01
2019-05-29T04:41:01.889Z,100291.17
2019-05-29T04:43:31.112Z,100293.91
2019-05-29T04:45:58.785Z,100293.91
2019-05-29T04:48:26.423Z,100290.77
2019-05-29T04:50:54.019Z,100297.48
2019-05-29T04:53:21.755Z,100304.51
2019-05-29T04:55:49.339Z,100304.51
2019-05-29T04:58:17.050Z,100306.28
2019-05-29T05:00:58.247Z,100312.81
2019-05-29T05:03:14.319Z,100313.18
2019-05-29T05:05:41.908Z,100323.94
2019-05-29T05:08:12.281Z,100325.78
2019-05-29T05:10:40.877Z,100330.58
2019-05-29T05:13:08.754Z,100332.81
2019-05-29T05:15:36.479Z,100330.70
2019-05-29T05:18:05.209Z,100330.70
2019-05-29T05:20:33.958Z,100333.02
2019-05-29T05:23:01.711Z,100333.02
2019-05-29T05:25:30.025Z,100335.73
2019-05-29T05:27:57.625Z,100337.81
2019-05-29T05:30:25.361Z,100337.81
2019-05-29T05:32:52.942Z,100338.00
2019-05-29T05:35:20.568Z,100342.22
2019-05-29T05:37:48.153Z,100347.03
2019-05-29T05:40:15.804Z,100339.56
2019-05-29T05:42:43.353Z,100339.56
2019-05-29T05:45:11.011Z,100348.00
2019-05-29T05:47:50.023Z,100352.75
2019-05-29T05:50:07.811Z,100352.81
2019-05-29T05:52:35.412Z,100352.81
2019-05-29T05:55:02.968Z,100358.84
2019-05-29T05:57:31.515Z,100358.84
2019-05-29T05:59:59.264Z,100363.13
2019-05-29T06:02:33.748Z,100363.42
2019-05-29T06:05:01.420Z,100363.42
2019-05-29T06:07:30.141Z,100369.88
2019-05-29T06:09:57.810Z,100369.88
2019-05-29T06:12:28.583Z,100367.91
2019-05-29T06:14:56.573Z,100375.09
2019-05-29T06:17:24.165Z,100383.58
2019-05-29T06:19:51.733Z,100383.58
2019-05-29T06:22:19.348Z,100373.87
2019-05-29T06:24:47.620Z,100381.88
2019-05-29T06:27:17.106Z,100381.88
2019-05-29T06:29:50.827Z,100388.28
2019-05-29T06:32:18.489Z,100384.39
2019-05-29T06:34:46.034Z,100384.39
2019-05-29T06:37:15.084Z,100386.66
2019-05-29T06:39:44.405Z,100391.14
2019-05-29T06:42:12.046Z,100393.20
2019-05-29T06:44:41.398Z,100398.31
2019-05-29T06:47:09.117Z,100396.72
2019-05-29T06:49:37.948Z,100396.82
2019-05-29T06:52:09.357Z,100400.50
2019-05-29T06:54:37.811Z,100400.50
2019-05-29T06:57:05.883Z,100410.11
2019-05-29T06:59:36.098Z,100407.84
2019-05-29T07:02:03.791Z,100407.84
2019-05-29T07:04:31.340Z,100418.16
2019-05-29T07:06:58.951Z,100417.64
2019-05-29T07:09:26.695Z,100417.92
2019-05-29T07:11:54.349Z,100417.92
2019-05-29T07:14:22.412Z,100416.54
2019-05-29T07:16:55.911Z,100406.50
2019-05-29T07:19:26.496Z,100411.33
2019-05-29T07:21:48.542Z,100409.48
2019-05-29T07:24:29.160Z,100411.05
2019-05-29T07:26:58.810Z,100414.99
2019-05-29T07:29:26.372Z,100414.99
2019-05-29T07:31:54.034Z,100416.84
2019-05-29T07:34:21.607Z,100424.77
2019-05-29T07:36:49.317Z,100421.58
2019-05-29T07:39:17.726Z,100430.23
2019-05-29T07:41:45.739Z,100435.31
2019-05-29T07:44:13.801Z,100427.47
2019-05-29T07:46:45.296Z,100424.98
2019-05-29T07:49:17.906Z,100424.98
2019-05-29T07:51:45.044Z,100430.31
2019-05-29T07:54:13.254Z,100426.65
2019-05-29T07:56:40.933Z,100426.65
2019-05-29T07:59:08.557Z,100425.12
2019-05-29T08:01:36.167Z,100426.52
2019-05-29T08:04:03.804Z,100428.56
2019-05-29T08:06:32.510Z,100428.86
2019-05-29T08:09:00.116Z,100432.28
2019-05-29T08:11:29.502Z,100438.16
2019-05-29T08:13:57.229Z,100434.20
2019-05-29T08:16:25.346Z,100434.20
2019-05-29T08:18:54.893Z,100436.70
2019-05-29T08:21:27.320Z,100438.20
2019-05-29T08:23:53.371Z,100445.28
2019-05-29T08:26:21.384Z,100449.75
2019-05-29T08:28:52.180Z,100453.07
2019-05-29T08:31:19.901Z,100456.70
2019-05-29T08:33:48.954Z,100456.70
2019-05-29T08:36:16.782Z,100454.64
2019-05-29T08:38:47.839Z,100456.42
2019-05-29T08:41:15.620Z,100453.14
2019-05-29T08:43:45.260Z,100453.14
2019-05-29T08:46:12.964Z,100463.55
2019-05-29T08:48:41.758Z,100463.20
2019-05-29T08:51:09.594Z,100467.80
2019-05-29T08:53:37.300Z,100468.33
2019-05-29T08:56:05.357Z,100468.33
2019-05-29T08:58:33.008Z,100472.14
2019-05-29T09:01:00.658Z,100468.22
2019-05-29T09:03:28.270Z,100465.02
2019-05-29T09:06:08.569Z,100465.02
2019-05-29T09:08:28.772Z,100463.50
2019-05-29T09:10:56.408Z,100463.09
2019-05-29T09:13:33.286Z,100463.09
2019-05-29T09:16:01.030Z,100463.78
2019-05-29T09:18:28.668Z,100466.40
2019-05-29T09:21:03.452Z,100463.28
2019-05-29T09:23:27.556Z,100463.77
2019-05-29T09:25:55.610Z,100460.81
2019-05-29T09:28:23.966Z,100460.81
2019-05-29T09:30:51.631Z,100457.17
2019-05-29T09:33:22.015Z,100457.17
2019-05-29T09:35:50.778Z,100463.23
2019-05-29T09:38:20.855Z,100463.23
2019-05-29T09:40:48.651Z,100460.90
2019-05-29T09:43:18.063Z,100466.05
2019-05-29T09:46:03.682Z,100466.05
2019-05-29T09:48:31.462Z,100466.38
2019-05-29T09:51:20.320Z,100459.16
2019-05-29T09:53:33.409Z,100465.02
2019-05-29T09:56:04.241Z,100465.02
2019-05-29T09:58:31.985Z,100463.66
2019-05-29T10:01:18.543Z,100466.50
2019-05-29T10:03:32.223Z,100470.31
2019-05-29T10:06:10.173Z,100470.31
2019-05-29T10:08:29.424Z,100472.03
2019-05-29T10:11:04.720Z,100456.72
2019-05-29T10:13:30.879Z,100460.90
2019-05-29T10:15:59.117Z,100457.66
2019-05-29T10:18:32.349Z,100463.87
2019-05-29T10:21:01.356Z,100463.94
2019-05-29T10:23:32.371Z,100458.74
2019-05-29T10:26:05.030Z,100459.75
2019-05-29T10:28:49.419Z,100458.95
2019-05-29T10:31:08.430Z,100454.27
2019-05-29T10:33:38.769Z,100463.94
2019-05-29T10:36:06.850Z,100468.03
2019-05-29T10:38:34.604Z,100468.08
2019-05-29T10:41:07.062Z,100471.34
2019-05-29T10:43:35.128Z,100470.47
2019-05-29T10:46:02.850Z,100467.25
2019-05-29T10:48:30.564Z,100461.81
2019-05-29T10:50:58.262Z,100469.02
2019-05-29T10:53:26.537Z,100453.91
2019-05-29T10:55:54.962Z,100456.39
2019-05-29T10:58:24.875Z,100466.48
2019-05-29T11:00:59.199Z,100456.62
2019-05-29T11:03:31.844Z,100456.55
2019-05-29T11:06:04.349Z,100452.77
2019-05-29T11:08:30.547Z,100453.45
2019-05-29T11:11:04.244Z,100448.12
2019-05-29T11:13:36.932Z,100441.39
2019-05-29T11:16:04.583Z,100441.39
2019-05-29T11:18:36.353Z,100442.55
2019-05-29T11:21:04.273Z,100442.30
2019-05-29T11:23:32.297Z,100442.47
2019-05-29T11:26:00.118Z,100449.48
2019-05-29T11:28:27.777Z,100436.02
2019-05-29T11:30:55.949Z,100443.72
2019-05-29T11:33:24.743Z,100431.51
2019-05-29T11:36:08.942Z,100440.22
2019-05-29T11:38:25.271Z,100440.22
2019-05-29T11:41:23.543Z,100438.59
2019-05-29T11:43:28.236Z,100438.59
2019-05-29T11:45:57.267Z,100447.17
2019-05-29T11:48:26.355Z,100443.97
2019-05-29T11:50:56.182Z,100443.97
2019-05-29T11:53:26.021Z,100444.05
2019-05-29T11:55:54.027Z,100444.05
2019-05-29T11:58:31.263Z,100444.36
2019-05-29T12:00:57.193Z,100444.42
2019-05-29T12:03:26.805Z,100437.61
2019-05-29T12:05:55.261Z,100440.61
2019-05-29T12:08:23.759Z,100428.78
2019-05-29T12:10:51.339Z,100435.19
2019-05-29T12:13:20.495Z,100435.19
2019-05-29T12:15:48.643Z,100428.92
2019-05-29T12:18:23.690Z,100429.98
2019-05-29T12:20:45.793Z,100429.98
2019-05-29T12:23:25.826Z,100426.47
2019-05-29T12:25:42.839Z,100425.30
2019-05-29T12:28:10.532Z,100422.97
2019-05-29T12:30:38.229Z,100422.81
2019-05-29T12:33:08.110Z,100422.94
2019-05-29T12:35:35.755Z,100418.77
2019-05-29T12:38:03.585Z,100410.95
2019-05-29T12:40:31.172Z,100405.23
2019-05-29T12:43:00.170Z,100405.23
2019-05-29T12:45:27.878Z,100405.75
2019-05-29T12:47:56.550Z,100404.59
2019-05-29T12:50:26.123Z,100405.52
2019-05-29T12:52:53.902Z,100405.15
2019-05-29T12:55:23.928Z,100402.55
2019-05-29T12:57:51.763Z,100404.39
2019-05-29T13:00:19.674Z,100403.72
2019-05-29T13:02:47.519Z,100403.72
2019-05-29T13:05:20.084Z,100400.77
2019-05-29T13:07:44.578Z,100397.92
2019-05-29T13:10:29.040Z,100403.67
2019-05-29T13:12:42.025Z,100405.11
2019-05-29T13:15:10.524Z,100408.81
2019-05-29T13:17:41.268Z,100400.89
2019-05-29T13:20:20.935Z,100401.42
2019-05-29T13:22:41.727Z,100403.55
2019-05-29T13:25:12.141Z,100397.56
2019-05-29T13:27:38.571Z,100392.69
2019-05-29T13:30:08.161Z,100392.69
2019-05-29T13:32:35.770Z,100386.47
2019-05-29T13:35:06.174Z,100385.09
2019-05-29T13:37:34.339Z,100388.98
2019-05-29T13:40:05.539Z,100389.92
2019-05-29T13:42:31.344Z,100386.41
2019-05-29T13:45:00.921Z,100385.79
2019-05-29T13:47:28.429Z,100384.22
2019-05-29T13:49:58.878Z,100380.45
2019-05-29T13:52:26.515Z,100381.25
2019-05-29T13:54:57.329Z,100374.16
2019-05-29T13:57:27.688Z,100382.05
2019-05-29T13:59:57.936Z,100379.86
2019-05-29T14:02:25.503Z,100376.69
2019-05-29T14:04:53.243Z,100362.27
2019-05-29T14:07:20.912Z,100371.84
2019-05-29T14:09:48.603Z,100361.92
2019-05-29T14:12:16.288Z,100368.38
2019-05-29T14:14:43.901Z,100368.38
2019-05-29T14:17:12.867Z,100363.06
2019-05-29T14:19:42.617Z,100366.03
2019-05-29T14:22:10.248Z,100357.49
2019-05-29T14:24:40.133Z,100359.33
2019-05-29T14:27:07.693Z,100362.47
2019-05-29T14:29:35.357Z,100355.30
2019-05-29T14:32:07.216Z,100357.69
2019-05-29T14:34:37.158Z,100355.18
2019-05-29T14:37:06.109Z,100355.89
2019-05-29T14:39:34.250Z,100351.03
2019-05-29T14:42:01.849Z,100351.31
2019-05-29T14:44:29.595Z,100349.94
2019-05-29T14:46:57.142Z,100356.97
2019-05-29T14:49:27.152Z,100355.52
2019-05-29T14:51:58.624Z,100372.30
2019-05-29T14:54:41.378Z,100363.40
2019-05-29T14:56:58.187Z,100365.48
2019-05-29T14:59:32.036Z,100363.16
2019-05-29T15:01:58.974Z,100364.21
2019-05-29T15:04:27.096Z,100359.83
2019-05-29T15:06:59.927Z,100362.59
2019-05-29T15:09:30.141Z,100364.40
2019-05-29T15:11:58.081Z,100360.48
2019-05-29T15:14:28.258Z,100352.30
2019-05-29T15:16:55.806Z,100357.78
2019-05-29T15:19:23.520Z,100347.70
2019-05-29T15:21:51.170Z,100351.53
2019-05-29T15:24:20.085Z,100351.90
2019-05-29T15:26:47.680Z,100351.91
2019-05-29T15:29:17.872Z,100351.36
2019-05-29T15:31:45.192Z,100354.41
2019-05-29T15:34:12.917Z,100352.80
2019-05-29T15:36:40.978Z,100357.14
2019-05-29T15:39:08.667Z,100357.70
2019-05-29T15:41:36.252Z,100360.98
2019-05-29T15:44:03.956Z,100366.25
2019-05-29T15:46:38.073Z,100362.06
2019-05-29T15:49:06.796Z,100367.14
2019-05-29T15:51:34.413Z,100375.14
2019-05-29T15:54:02.130Z,100368.19
2019-05-29T15:56:29.698Z,100385.63
2019-05-29T15:58:57.319Z,100385.63
2019-05-29T16:01:46.334Z,100379.50
2019-05-29T16:04:13.952Z,100370.65
2019-05-29T16:06:43.213Z,100372.52
2019-05-29T16:09:14.313Z,100364.70
2019-05-29T16:11:42.024Z,100372.96
2019-05-29T16:14:14.958Z,100361.30
2019-05-29T16:16:45.010Z,100362.97
2019-05-29T16:19:12.749Z,100356.49
2019-05-29T16:21:41.618Z,100363.48
2019-05-29T16:24:14.651Z,100364.44
2019-05-29T16:26:42.272Z,100364.53
2019-05-29T16:29:10.480Z,100368.09
2019-05-29T16:31:38.197Z,100368.80
2019-05-29T16:34:06.410Z,100371.92
2019-05-29T16:36:34.165Z,100372.88
2019-05-29T16:39:05.246Z,100379.51
2019-05-29T16:41:34.884Z,100380.55
2019-05-29T16:44:02.569Z,100379.92
2019-05-29T16:46:30.232Z,100372.87
2019-05-29T16:48:58.579Z,100379.31
2019-05-29T16:51:32.160Z,100376.41
2019-05-29T16:54:02.693Z,100374.65
2019-05-29T16:56:30.339Z,100373.47
2019-05-29T16:58:58.285Z,100370.81
2019-05-29T17:01:33.651Z,100376.19
2019-05-29T17:04:02.908Z,100380.31
2019-05-29T17:06:30.496Z,100380.31
2019-05-29T17:08:58.117Z,100381.06
2019-05-29T17:11:27.432Z,100387.41
2019-05-29T17:13:56.173Z,100390.33
2019-05-29T17:16:25.262Z,100389.22
2019-05-29T17:18:54.111Z,100389.22
2019-05-29T17:21:22.731Z,100393.44
2019-05-29T17:23:50.456Z,100394.27
2019-05-29T17:26:18.693Z,100394.27
2019-05-29T17:28:46.233Z,100387.34
2019-05-29T17:31:14.969Z,100384.63
2019-05-29T17:33:42.536Z,100387.48
2019-05-29T17:36:11.470Z,100387.48
2019-05-29T17:38:39.059Z,100385.97
2019-05-29T17:41:06.916Z,100384.57
2019-05-29T17:43:38.910Z,100384.22
2019-05-29T17:46:12.255Z,100383.19
2019-05-29T17:48:39.838Z,100385.87
2019-05-29T17:51:12.026Z,100398.33
2019-05-29T17:53:39.879Z,100397.77
2019-05-29T17:56:07.526Z,100399.61
2019-05-29T17:58:37.927Z,100397.07
2019-05-29T18:01:07.484Z,100393.81
2019-05-29T18:03:43.568Z,100399.70
2019-05-29T18:06:14.607Z,100399.70
2019-05-29T18:08:43.821Z,100402.02
2019-05-29T18:11:13.091Z,100409.59
2019-05-29T18:13:40.718Z,100408.39
2019-05-29T18:16:09.554Z,100409.87
2019-05-29T18:18:37.160Z,100409.99
2019-05-29T18:21:05.250Z,100407.92
2019-05-29T18:23:35.713Z,100410.58
2019-05-29T18:26:04.375Z,100404.61
2019-05-29T18:28:32.027Z,100404.61
2019-05-29T18:30:59.587Z,100407.29
2019-05-29T18:33:29.976Z,100395.64
2019-05-29T18:35:57.553Z,100394.05
2019-05-29T18:38:26.513Z,100394.05
2019-05-29T18:40:54.247Z,100395.67
2019-05-29T18:43:26.568Z,100400.33
2019-05-29T18:45:54.390Z,100397.84
2019-05-29T18:48:23.177Z,100397.78
2019-05-29T18:51:01.941Z,100397.78
2019-05-29T18:53:33.103Z,100398.91
2019-05-29T18:56:00.835Z,100407.25
2019-05-29T18:58:28.463Z,100405.28
2019-05-29T19:00:58.095Z,100405.80
2019-05-29T19:03:27.531Z,100405.80
2019-05-29T19:06:00.175Z,100410.95
2019-05-29T19:08:27.799Z,100410.98
2019-05-29T19:10:57.175Z,100410.98
2019-05-29T19:13:29.944Z,100406.34
2019-05-29T19:16:02.129Z,100406.73
2019-05-29T19:18:30.203Z,100409.78
2019-05-29T19:20:58.585Z,100422.36
2019-05-29T19:23:26.558Z,100422.36
2019-05-29T19:25:56.267Z,100424.48
2019-05-29T19:28:26.517Z,100425.81
2019-05-29T19:30:55.303Z,100429.16
2019-05-29T19:33:23.743Z,100435.70
2019-05-29T19:35:51.363Z,100437.70
2019-05-29T19:38:19.043Z,100437.70
2019-05-29T19:40:49.618Z,100436.00
2019-05-29T19:43:17.258Z,100441.06
2019-05-29T19:45:44.852Z,100437.06
2019-05-29T19:48:12.588Z,100441.23
2019-05-29T19:50:41.217Z,100441.23
2019-05-29T19:53:09.349Z,100447.16
2019-05-29T19:55:38.341Z,100452.50
2019-05-29T19:58:07.522Z,100451.52
2019-05-29T20:00:41.791Z,100449.85
2019-05-29T20:03:12.485Z,100461.23
2019-05-29T20:05:41.929Z,100462.19
2019-05-29T20:08:11.584Z,100466.03
2019-05-29T20:10:39.172Z,100466.03
2019-05-29T20:13:06.807Z,100471.09
2019-05-29T20:15:34.400Z,100471.09
2019-05-29T20:18:03.839Z,100470.51
2019-05-29T20:20:32.371Z,100470.51
2019-05-29T20:23:02.822Z,100473.95
2019-05-29T20:25:33.252Z,100471.91
2019-05-29T20:28:07.003Z,100471.91
2019-05-29T20:30:40.680Z,100478.80
2019-05-29T20:33:11.579Z,100465.59
2019-05-29T20:35:40.319Z,100470.52
2019-05-29T20:38:14.682Z,100470.52
2019-05-29T20:40:44.238Z,100473.84
2019-05-29T20:43:14.787Z,100473.84
2019-05-29T20:45:42.394Z,100480.35
2019-05-29T20:48:10.387Z,100480.49
2019-05-29T20:50:39.169Z,100479.17
2019-05-29T20:53:07.549Z,100479.17
2019-05-29T20:55:37.839Z,100484.16
2019-05-29T20:58:21.489Z,100484.16
2019-05-29T21:00:40.238Z,100482.13
2019-05-29T21:03:10.090Z,100482.13
2019-05-29T21:05:38.697Z,100482.00
2019-05-29T21:08:06.215Z,100482.00
2019-05-29T21:10:35.022Z,100481.28
2019-05-29T21:13:04.697Z,100485.05
2019-05-29T21:15:33.441Z,100485.05
2019-05-29T21:18:03.231Z,100488.23
2019-05-29T21:20:34.166Z,100484.95
2019-05-29T21:23:01.710Z,100485.42
2019-05-29T21:25:36.568Z,100492.02
2019-05-29T21:28:01.148Z,100492.02
2019-05-29T21:30:28.741Z,100489.70
2019-05-29T21:32:58.375Z,100487.38
2019-05-29T21:35:27.263Z,100487.86
2019-05-29T21:37:57.044Z,100487.86
2019-05-29T21:40:26.727Z,100483.99
2019-05-29T21:42:58.129Z,100483.12
2019-05-29T21:45:25.740Z,100483.12
2019-05-29T21:47:53.472Z,100480.32
2019-05-29T21:50:21.060Z,100480.32
2019-05-29T21:52:48.732Z,100468.42
2019-05-29T21:55:16.400Z,100468.42
2019-05-29T21:57:47.982Z,100477.98
2019-05-29T22:00:16.339Z,100477.98
2019-05-29T22:02:44.495Z,100486.52
2019-05-29T22:05:12.405Z,100489.66
2019-05-29T22:07:40.676Z,100483.00
2019-05-29T22:10:08.442Z,100477.06
2019-05-29T22:12:36.263Z,100489.29
2019-05-29T22:15:04.513Z,100485.42
2019-05-29T22:17:32.289Z,100490.41
2019-05-29T22:20:01.254Z,100488.21
2019-05-29T22:22:30.829Z,100491.75
2019-05-29T22:24:59.356Z,100491.75
2019-05-29T22:27:27.010Z,100481.05
2019-05-29T22:29:55.305Z,100478.97
2019-05-29T22:32:26.054Z,100478.97
2019-05-29T22:34:55.430Z,100478.61
2019-05-29T22:37:23.573Z,100486.27
2019-05-29T22:39:55.486Z,100488.59
2019-05-29T22:42:22.331Z,100484.22
2019-05-29T22:44:50.014Z,100491.73
2019-05-29T22:47:18.169Z,100491.73
2019-05-29T22:49:45.861Z,100482.99
2019-05-29T22:52:15.849Z,100482.99
2019-05-29T22:54:43.883Z,100485.92
2019-05-29T22:57:14.361Z,100488.72
2019-05-29T22:59:42.285Z,100481.44
2019-05-29T23:02:09.948Z,100482.16
2019-05-29T23:04:37.600Z,100482.16
2019-05-29T23:07:14.031Z,100479.70
2019-05-29T23:09:52.344Z,100480.07
2019-05-29T23:12:18.654Z,100480.07
2019-05-29T23:14:46.260Z,100481.52
2019-05-29T23:17:13.977Z,100482.34
2019-05-29T23:19:41.640Z,100482.34
2019-05-29T23:22:09.219Z,100472.02
2019-05-29T23:24:37.289Z,100471.39
2019-05-29T23:27:04.926Z,100471.39
2019-05-29T23:29:48.043Z,100468.83
2019-05-29T23:32:03.151Z,100475.35
2019-05-29T23:34:31.194Z,100475.35
2019-05-29T23:36:59.158Z,100467.23
2019-05-29T23:39:26.870Z,100468.31
2019-05-29T23:41:55.239Z,100470.25
2019-05-29T23:44:23.068Z,100463.19
2019-05-29T23:46:51.143Z,100461.63
2019-05-29T23:49:18.893Z,100461.63
2019-05-29T23:51:46.666Z,100455.58
2019-05-29T23:54:14.366Z,100454.97
2019-05-29T23:56:42.015Z,100448.91
2019-05-29T23:59:10.070Z,100448.91
